createdAt,value
2022-12-09T00:02:10.267Z,6.21
2022-12-09T00:04:36.973Z,6.19
2022-12-09T00:07:03.685Z,6.18
2022-12-09T00:09:30.346Z,6.17
2022-12-09T00:11:56.788Z,6.18
2022-12-09T00:14:23.578Z,6.17
2022-12-09T00:16:50.431Z,6.16
2022-12-09T00:19:16.955Z,6.16
2022-12-09T00:21:43.580Z,6.15
2022-12-09T00:24:12.430Z,6.14
2022-12-09T00:26:39.920Z,6.13
2022-12-09T00:29:06.793Z,6.14
2022-12-09T00:31:37.330Z,6.13
2022-12-09T00:34:07.762Z,6.12
2022-12-09T00:36:34.658Z,6.11
2022-12-09T00:39:01.442Z,6.11
2022-12-09T00:41:29.385Z,6.10
2022-12-09T00:43:56.658Z,6.08
2022-12-09T00:46:23.259Z,6.09
2022-12-09T00:48:49.967Z,6.09
2022-12-09T00:51:20.384Z,6.08
2022-12-09T00:53:54.235Z,6.07
2022-12-09T00:56:22.974Z,6.07
2022-12-09T00:58:49.602Z,6.07
2022-12-09T01:01:16.415Z,6.06
2022-12-09T01:03:43.552Z,6.07
2022-12-09T01:06:18.689Z,6.04
2022-12-09T01:08:45.948Z,6.03
2022-12-09T01:11:18.770Z,6.03
2022-12-09T01:13:45.312Z,6.03
2022-12-09T01:16:21.912Z,6.03
2022-12-09T01:18:49.485Z,6.02
2022-12-09T01:21:16.214Z,6.04
2022-12-09T01:23:43.175Z,6.04
2022-12-09T01:26:10.626Z,6.04
2022-12-09T01:28:39.651Z,6.03
2022-12-09T01:31:14.612Z,6.03
2022-12-09T01:33:42.539Z,6.02
2022-12-09T01:36:13.483Z,6.02
2022-12-09T01:38:40.145Z,6.02
2022-12-09T01:41:07.162Z,6.01
2022-12-09T01:43:33.971Z,6.00
2022-12-09T01:46:00.543Z,6.00
2022-12-09T01:48:30.600Z,6.00
2022-12-09T01:51:03.532Z,5.98
2022-12-09T01:53:38.921Z,5.97
2022-12-09T01:56:11.044Z,5.96
2022-12-09T01:58:38.023Z,5.95
2022-12-09T02:01:04.676Z,5.94
2022-12-09T02:03:31.354Z,5.91
2022-12-09T02:05:58.403Z,5.91
2022-12-09T02:08:28.260Z,5.90
2022-12-09T02:11:11.101Z,5.88
2022-12-09T02:13:47.291Z,5.85
2022-12-09T02:16:20.078Z,5.85
2022-12-09T02:18:57.767Z,5.85
2022-12-09T02:21:34.559Z,5.84
2022-12-09T02:24:12.214Z,5.82
2022-12-09T02:26:49.059Z,5.82
2022-12-09T02:29:34.060Z,5.79
2022-12-09T02:32:09.719Z,5.80
2022-12-09T02:34:46.165Z,5.78
2022-12-09T02:37:31.442Z,5.77
2022-12-09T02:40:05.779Z,5.77
2022-12-09T02:42:36.073Z,5.74
2022-12-09T02:45:06.371Z,5.73
2022-12-09T02:47:36.810Z,5.73
2022-12-09T02:50:09.053Z,5.70
2022-12-09T02:52:36.414Z,5.70
2022-12-09T02:55:07.007Z,5.69
2022-12-09T02:57:36.032Z,5.70
2022-12-09T03:00:06.665Z,5.68
2022-12-09T03:02:37.659Z,5.68
2022-12-09T03:05:21.498Z,5.67
2022-12-09T03:08:09.415Z,5.67
2022-12-09T03:10:54.158Z,5.66
2022-12-09T03:13:49.860Z,5.65
2022-12-09T03:16:22.501Z,5.64
2022-12-09T03:18:55.672Z,5.63
2022-12-09T03:21:26.203Z,5.62
2022-12-09T03:23:56.330Z,5.61
2022-12-09T03:26:27.749Z,5.59
2022-12-09T03:28:55.833Z,5.59
2022-12-09T03:31:28.124Z,5.58
2022-12-09T03:33:58.592Z,5.59
2022-12-09T03:36:28.527Z,5.58
2022-12-09T03:38:55.660Z,5.58
2022-12-09T03:41:29.770Z,5.56
2022-12-09T03:44:08.623Z,5.55
2022-12-09T03:46:35.408Z,5.55
2022-12-09T03:49:02.064Z,5.54
2022-12-09T03:51:35.374Z,5.54
2022-12-09T03:54:17.312Z,5.52
2022-12-09T03:56:47.459Z,5.51
2022-12-09T03:59:15.430Z,5.52
2022-12-09T04:01:44.540Z,5.51
2022-12-09T04:04:11.646Z,5.51
2022-12-09T04:06:39.019Z,5.51
2022-12-09T04:09:06.102Z,5.51
2022-12-09T04:11:33.707Z,5.51
2022-12-09T04:14:00.536Z,5.51
2022-12-09T04:16:27.756Z,5.51
2022-12-09T04:18:54.799Z,5.51
2022-12-09T04:21:21.415Z,5.52
2022-12-09T04:23:47.965Z,5.53
2022-12-09T04:26:17.595Z,5.54
2022-12-09T04:28:44.120Z,5.54
2022-12-09T04:31:12.865Z,5.56
2022-12-09T04:33:39.705Z,5.57
2022-12-09T04:36:08.007Z,5.57
2022-12-09T04:38:34.562Z,5.58
2022-12-09T04:41:01.829Z,5.58
2022-12-09T04:43:28.461Z,5.60
2022-12-09T04:45:59.683Z,5.61
2022-12-09T04:48:26.115Z,5.61
2022-12-09T04:50:52.594Z,5.64
2022-12-09T04:53:18.951Z,5.65
2022-12-09T04:55:45.569Z,5.66
2022-12-09T04:58:12.160Z,5.66
2022-12-09T05:00:38.896Z,5.68
2022-12-09T05:03:05.907Z,5.69
2022-12-09T05:05:32.727Z,5.70
2022-12-09T05:07:59.597Z,5.70
2022-12-09T05:10:26.579Z,5.72
2022-12-09T05:12:53.375Z,5.74
2022-12-09T05:15:20.149Z,5.73
2022-12-09T05:17:46.875Z,5.74
2022-12-09T05:20:14.506Z,5.75
2022-12-09T05:22:41.122Z,5.77
2022-12-09T05:25:08.029Z,5.76
2022-12-09T05:27:34.426Z,5.77
2022-12-09T05:30:00.790Z,5.78
2022-12-09T05:32:30.637Z,5.80
2022-12-09T05:34:57.409Z,5.80
2022-12-09T05:37:24.104Z,5.81
2022-12-09T05:39:50.828Z,5.82
2022-12-09T05:42:17.295Z,5.81
2022-12-09T05:44:43.845Z,5.82
2022-12-09T05:47:10.660Z,5.81
2022-12-09T05:49:38.988Z,5.83
2022-12-09T05:52:06.270Z,5.84
2022-12-09T05:54:33.146Z,5.83
2022-12-09T05:57:01.272Z,5.84
2022-12-09T05:59:28.152Z,5.85
2022-12-09T06:01:55.050Z,5.83
2022-12-09T06:04:21.951Z,5.83
2022-12-09T06:06:48.976Z,5.82
2022-12-09T06:09:16.836Z,5.82
2022-12-09T06:11:43.754Z,5.82
2022-12-09T06:14:11.604Z,5.81
2022-12-09T06:16:39.700Z,5.81
2022-12-09T06:19:06.839Z,5.81
2022-12-09T06:21:33.552Z,5.80
2022-12-09T06:24:00.077Z,5.80
2022-12-09T06:26:28.980Z,5.80
2022-12-09T06:28:56.881Z,5.79
2022-12-09T06:31:24.209Z,5.80
2022-12-09T06:33:56.551Z,5.80
2022-12-09T06:36:25.041Z,5.78
2022-12-09T06:38:52.016Z,5.78
2022-12-09T06:41:18.717Z,5.79
2022-12-09T06:43:45.582Z,5.78
2022-12-09T06:46:20.548Z,5.79
2022-12-09T06:48:47.542Z,5.79
2022-12-09T06:51:15.690Z,5.77
2022-12-09T06:53:42.499Z,5.75
2022-12-09T06:56:12.576Z,5.76
2022-12-09T06:58:41.257Z,5.76
2022-12-09T07:01:14.624Z,5.74
2022-12-09T07:03:43.071Z,5.73
2022-12-09T07:06:31.830Z,5.71
2022-12-09T07:09:01.281Z,5.72
2022-12-09T07:11:29.114Z,5.71
2022-12-09T07:13:56.201Z,5.71
2022-12-09T07:16:22.889Z,5.73
2022-12-09T07:18:50.251Z,5.71
2022-12-09T07:21:18.917Z,5.71
2022-12-09T07:23:46.045Z,5.68
2022-12-09T07:26:13.130Z,5.69
2022-12-09T07:28:42.646Z,5.68
2022-12-09T07:31:24.995Z,5.69
2022-12-09T07:33:53.498Z,5.71
2022-12-09T07:36:22.378Z,5.71
2022-12-09T07:38:54.482Z,5.70
2022-12-09T07:41:21.072Z,5.70
2022-12-09T07:43:48.176Z,5.69
2022-12-09T07:46:17.412Z,5.69
2022-12-09T07:48:44.503Z,5.70
2022-12-09T07:51:12.114Z,5.70
2022-12-09T07:53:39.301Z,5.70
2022-12-09T07:56:09.208Z,5.72
2022-12-09T07:58:36.315Z,5.71
2022-12-09T08:01:14.790Z,5.71
2022-12-09T08:03:42.595Z,5.70
2022-12-09T08:06:14.467Z,5.72
2022-12-09T08:08:42.072Z,5.71
2022-12-09T08:11:11.065Z,5.71
2022-12-09T08:13:37.919Z,5.70
2022-12-09T08:16:07.024Z,5.71
2022-12-09T08:18:35.032Z,5.71
2022-12-09T08:21:11.054Z,5.71
2022-12-09T08:23:38.136Z,5.69
2022-12-09T08:26:06.083Z,5.63
2022-12-09T08:28:33.122Z,5.55
2022-12-09T08:31:07.505Z,5.50
2022-12-09T08:33:35.432Z,5.45
2022-12-09T08:36:03.967Z,5.38
2022-12-09T08:38:31.997Z,5.35
2022-12-09T08:40:59.054Z,5.31
2022-12-09T08:43:25.790Z,5.26
2022-12-09T08:45:52.508Z,5.21
2022-12-09T08:48:19.158Z,5.16
2022-12-09T08:50:46.073Z,5.09
2022-12-09T08:53:12.639Z,5.04
2022-12-09T08:55:40.194Z,4.99
2022-12-09T08:58:07.063Z,4.95
2022-12-09T09:00:33.744Z,4.89
2022-12-09T09:03:00.788Z,4.86
2022-12-09T09:05:27.502Z,4.82
2022-12-09T09:07:54.450Z,4.78
2022-12-09T09:10:21.763Z,4.76
2022-12-09T09:12:48.598Z,4.72
2022-12-09T09:15:15.897Z,4.69
2022-12-09T09:17:48.170Z,4.64
2022-12-09T09:20:18.322Z,4.63
2022-12-09T09:22:45.066Z,4.58
2022-12-09T09:25:11.947Z,4.54
2022-12-09T09:27:39.189Z,4.52
2022-12-09T09:30:07.608Z,4.50
2022-12-09T09:32:34.664Z,4.47
2022-12-09T09:35:01.533Z,4.44
2022-12-09T09:37:28.508Z,4.43
2022-12-09T09:39:55.497Z,4.42
2022-12-09T09:42:35.773Z,4.44
2022-12-09T09:45:10.621Z,4.42
2022-12-09T09:47:43.337Z,4.41
2022-12-09T09:50:35.415Z,4.42
2022-12-09T09:53:15.535Z,4.40
2022-12-09T09:55:58.433Z,4.41
2022-12-09T09:58:30.984Z,4.43
2022-12-09T10:01:04.267Z,4.42
2022-12-09T10:03:35.944Z,4.45
2022-12-09T10:06:16.623Z,4.46
2022-12-09T10:09:09.321Z,4.49
2022-12-09T10:11:57.918Z,4.50
2022-12-09T10:14:50.555Z,4.53
2022-12-09T10:17:33.063Z,4.55
2022-12-09T10:20:10.270Z,4.57
2022-12-09T10:22:59.199Z,4.59
2022-12-09T10:25:33.642Z,4.62
2022-12-09T10:28:23.917Z,4.66
2022-12-09T10:30:52.647Z,4.68
2022-12-09T10:33:30.953Z,4.67
2022-12-09T10:35:58.502Z,4.69
2022-12-09T10:38:26.133Z,4.68
2022-12-09T10:41:11.816Z,4.69
2022-12-09T10:43:41.030Z,4.69
2022-12-09T10:46:20.389Z,4.70
2022-12-09T10:48:47.875Z,4.70
2022-12-09T10:51:36.516Z,4.70
2022-12-09T10:54:21.028Z,4.70
2022-12-09T10:57:11.054Z,4.72
2022-12-09T10:59:39.516Z,4.74
2022-12-09T11:02:06.303Z,4.74
2022-12-09T11:04:41.975Z,4.77
2022-12-09T11:07:11.931Z,4.78
2022-12-09T11:09:43.636Z,4.80
2022-12-09T11:12:20.431Z,4.80
2022-12-09T11:14:56.202Z,4.83
2022-12-09T11:17:27.491Z,4.85
2022-12-09T11:20:07.157Z,4.88
2022-12-09T11:22:42.632Z,4.88
2022-12-09T11:25:12.599Z,4.90
2022-12-09T11:27:49.561Z,4.92
2022-12-09T11:30:27.034Z,4.93
2022-12-09T11:33:08.730Z,4.93
2022-12-09T11:35:44.755Z,4.95
2022-12-09T11:38:17.697Z,4.97
2022-12-09T11:41:01.112Z,5.00
2022-12-09T11:43:33.771Z,5.01
2022-12-09T11:46:00.410Z,5.03
2022-12-09T11:48:38.648Z,5.00
2022-12-09T11:51:20.738Z,5.00
2022-12-09T11:53:47.538Z,5.00
2022-12-09T11:56:19.499Z,5.03
2022-12-09T11:58:59.790Z,5.05
2022-12-09T12:01:43.203Z,5.06
2022-12-09T12:04:13.147Z,5.08
2022-12-09T12:06:42.369Z,5.11
2022-12-09T12:09:20.005Z,5.14
2022-12-09T12:12:06.607Z,5.15
2022-12-09T12:14:37.442Z,5.11
2022-12-09T12:17:33.633Z,5.10
2022-12-09T12:20:00.241Z,5.09
2022-12-09T12:22:32.345Z,5.08
2022-12-09T12:25:17.444Z,5.09
2022-12-09T12:28:02.592Z,5.10
2022-12-09T12:30:54.439Z,5.07
2022-12-09T12:36:42.276Z,5.07
2022-12-09T12:39:46.287Z,5.07
2022-12-09T12:42:30.813Z,5.06
2022-12-09T12:45:34.697Z,5.08
2022-12-09T12:48:08.141Z,5.07
2022-12-09T12:51:06.639Z,5.06
2022-12-09T12:53:51.562Z,5.05
2022-12-09T12:56:28.800Z,5.03
2022-12-09T12:59:02.268Z,5.04
2022-12-09T13:01:30.575Z,5.01
2022-12-09T13:04:02.164Z,4.99
2022-12-09T13:06:52.859Z,4.91
2022-12-09T13:09:32.264Z,4.87
2022-12-09T13:12:07.774Z,4.89
2022-12-09T13:14:43.029Z,4.98
2022-12-09T13:17:13.765Z,5.01
2022-12-09T13:19:44.617Z,4.93
2022-12-09T13:22:22.145Z,4.91
2022-12-09T13:25:02.998Z,4.94
2022-12-09T13:27:38.156Z,4.97
2022-12-09T13:30:12.778Z,4.97
2022-12-09T13:32:58.541Z,4.98
2022-12-09T13:35:29.654Z,4.99
2022-12-09T13:37:57.711Z,4.99
2022-12-09T13:40:36.736Z,5.00
2022-12-09T13:43:03.105Z,5.00
2022-12-09T13:45:37.371Z,5.00
2022-12-09T13:48:29.200Z,4.98
2022-12-09T13:50:59.656Z,4.96
2022-12-09T13:53:33.660Z,4.89
2022-12-09T13:56:01.663Z,4.87
2022-12-09T13:59:09.801Z,4.91
2022-12-09T14:01:49.655Z,4.96
2022-12-09T14:04:21.696Z,4.96
2022-12-09T14:06:56.043Z,4.91
2022-12-09T14:09:34.407Z,4.93
2022-12-09T14:12:07.425Z,4.99
2022-12-09T14:14:33.742Z,5.01
2022-12-09T14:17:02.615Z,5.04
2022-12-09T14:19:33.683Z,5.06
2022-12-09T14:22:19.330Z,5.11
2022-12-09T14:24:49.396Z,5.13
2022-12-09T14:27:17.813Z,5.14
2022-12-09T14:29:56.119Z,5.16
2022-12-09T14:32:33.873Z,5.17
2022-12-09T14:35:06.771Z,5.20
2022-12-09T14:38:10.766Z,5.22
2022-12-09T14:40:43.326Z,5.22
2022-12-09T14:43:27.853Z,5.23
2022-12-09T14:46:04.006Z,5.22
2022-12-09T14:48:38.258Z,5.21
2022-12-09T14:51:22.100Z,5.19
2022-12-09T14:53:54.958Z,5.22
2022-12-09T14:56:24.492Z,5.24
2022-12-09T14:58:55.666Z,5.25
2022-12-09T15:01:22.015Z,5.26
2022-12-09T15:03:57.008Z,5.28
2022-12-09T15:06:28.339Z,5.31
2022-12-09T15:08:57.116Z,5.33
2022-12-09T15:11:28.027Z,5.34
2022-12-09T15:13:56.822Z,5.36
2022-12-09T15:16:26.108Z,5.37
2022-12-09T15:18:54.154Z,5.39
2022-12-09T15:21:29.489Z,5.42
2022-12-09T15:23:56.845Z,5.41
2022-12-09T15:26:29.236Z,5.42
2022-12-09T15:28:57.285Z,5.43
2022-12-09T15:31:26.900Z,5.44
2022-12-09T15:33:59.952Z,5.46
2022-12-09T15:36:31.669Z,5.48
2022-12-09T15:39:11.447Z,5.47
2022-12-09T15:42:03.669Z,5.47
2022-12-09T15:44:35.133Z,5.50
2022-12-09T15:47:06.882Z,5.47
2022-12-09T15:49:43.074Z,5.44
2022-12-09T15:52:11.727Z,5.45
2022-12-09T15:54:42.591Z,5.46
2022-12-09T15:57:14.977Z,5.45
2022-12-09T15:59:44.087Z,5.48
2022-12-09T16:02:15.287Z,5.49
2022-12-09T16:04:44.535Z,5.47
2022-12-09T16:07:13.780Z,5.46
2022-12-09T16:09:40.554Z,5.48
2022-12-09T16:12:28.631Z,5.47
2022-12-09T16:14:55.125Z,5.47
2022-12-09T16:17:24.906Z,5.48
2022-12-09T16:19:51.699Z,5.49
2022-12-09T16:22:48.003Z,5.49
2022-12-09T16:25:24.650Z,5.50
2022-12-09T16:28:04.091Z,5.49
2022-12-09T16:30:33.275Z,5.50
2022-12-09T16:33:01.777Z,5.49
2022-12-09T16:35:32.198Z,5.49
2022-12-09T16:37:58.523Z,5.49
2022-12-09T16:40:24.827Z,5.49
2022-12-09T16:43:14.016Z,5.47
2022-12-09T16:45:40.833Z,5.47
2022-12-09T16:48:09.819Z,5.48
2022-12-09T16:50:47.465Z,5.47
2022-12-09T16:53:18.286Z,5.46
2022-12-09T16:56:02.096Z,5.46
2022-12-09T16:58:30.677Z,5.45
2022-12-09T17:00:58.668Z,5.44
2022-12-09T17:03:28.044Z,5.44
2022-12-09T17:05:54.525Z,5.42
2022-12-09T17:08:21.141Z,5.43
2022-12-09T17:10:47.641Z,5.42
2022-12-09T17:13:14.057Z,5.41
2022-12-09T17:15:43.683Z,5.39
2022-12-09T17:18:10.483Z,5.39
2022-12-09T17:20:38.026Z,5.38
2022-12-09T17:23:04.965Z,5.37
2022-12-09T17:25:33.243Z,5.37
2022-12-09T17:28:04.946Z,5.37
2022-12-09T17:30:31.358Z,5.36
2022-12-09T17:33:00.603Z,5.36
2022-12-09T17:35:27.180Z,5.35
2022-12-09T17:37:53.580Z,5.34
2022-12-09T17:40:19.985Z,5.35
2022-12-09T17:42:46.413Z,5.35
2022-12-09T17:45:12.771Z,5.33
2022-12-09T17:47:39.238Z,5.32
2022-12-09T17:50:06.372Z,5.34
2022-12-09T17:52:33.211Z,5.32
2022-12-09T17:54:59.658Z,5.32
2022-12-09T17:57:26.046Z,5.33
2022-12-09T17:59:52.510Z,5.33
2022-12-09T18:02:18.935Z,5.33
2022-12-09T18:04:45.359Z,5.32
2022-12-09T18:07:11.742Z,5.33
2022-12-09T18:09:38.211Z,5.32
2022-12-09T18:12:04.843Z,5.33
2022-12-09T18:14:31.351Z,5.32
2022-12-09T18:16:57.789Z,5.31
2022-12-09T18:19:24.939Z,5.33
2022-12-09T18:21:53.604Z,5.33
2022-12-09T18:24:20.074Z,5.32
2022-12-09T18:26:46.560Z,5.32
2022-12-09T18:29:13.599Z,5.32
2022-12-09T18:31:40.707Z,5.32
2022-12-09T18:34:07.203Z,5.32
2022-12-09T18:36:33.682Z,5.31
2022-12-09T18:39:00.354Z,5.31
2022-12-09T18:41:30.104Z,5.31
2022-12-09T18:43:58.814Z,5.30
2022-12-09T18:46:33.125Z,5.31
2022-12-09T18:49:08.203Z,5.31
2022-12-09T18:51:35.012Z,5.30
2022-12-09T18:54:02.314Z,5.30
2022-12-09T18:56:29.179Z,5.29
2022-12-09T18:59:11.764Z,5.30
2022-12-09T19:01:41.427Z,5.30
2022-12-09T19:04:15.352Z,5.30
2022-12-09T19:06:44.551Z,5.30
2022-12-09T19:09:18.629Z,5.29
2022-12-09T19:11:46.923Z,5.30
2022-12-09T19:14:15.470Z,5.26
2022-12-09T19:16:43.248Z,5.27
2022-12-09T19:19:13.186Z,5.27
2022-12-09T19:21:39.737Z,5.27
2022-12-09T19:24:07.757Z,5.28
2022-12-09T19:26:36.344Z,5.28
2022-12-09T19:29:05.593Z,5.25
2022-12-09T19:31:36.081Z,5.25
2022-12-09T19:34:06.545Z,5.25
2022-12-09T19:36:35.525Z,5.23
2022-12-09T19:39:03.899Z,5.22
2022-12-09T19:41:30.349Z,5.22
2022-12-09T19:43:58.811Z,5.21
2022-12-09T19:46:26.641Z,5.20
2022-12-09T19:48:54.233Z,5.20
2022-12-09T19:51:21.686Z,5.20
2022-12-09T19:53:48.696Z,5.15
2022-12-09T19:56:18.714Z,5.14
2022-12-09T19:58:46.286Z,5.14
2022-12-09T20:01:21.835Z,5.15
2022-12-09T20:03:51.269Z,5.14
2022-12-09T20:06:20.425Z,5.13
2022-12-09T20:08:47.872Z,5.13
2022-12-09T20:11:20.972Z,5.10
2022-12-09T20:13:48.237Z,5.11
2022-12-09T20:16:18.885Z,5.10
2022-12-09T20:18:46.720Z,5.09
2022-12-09T20:21:14.168Z,5.11
2022-12-09T20:23:42.839Z,5.10
2022-12-09T20:26:12.235Z,5.07
2022-12-09T20:28:40.290Z,5.08
2022-12-09T20:31:10.773Z,5.07
2022-12-09T20:33:37.442Z,5.06
2022-12-09T20:36:19.485Z,5.04
2022-12-09T20:38:49.985Z,5.04
2022-12-09T20:41:16.706Z,5.04
2022-12-09T20:43:45.676Z,5.04
2022-12-09T20:46:16.252Z,5.02
2022-12-09T20:48:43.382Z,5.02
2022-12-09T20:51:14.787Z,5.01
2022-12-09T20:53:42.825Z,4.99
2022-12-09T20:56:10.032Z,4.98
2022-12-09T20:58:37.506Z,4.98
2022-12-09T21:01:06.293Z,4.95
2022-12-09T21:03:33.020Z,4.96
2022-12-09T21:05:59.538Z,4.93
2022-12-09T21:08:31.280Z,4.93
2022-12-09T21:11:19.206Z,4.94
2022-12-09T21:13:48.281Z,4.91
2022-12-09T21:16:21.111Z,4.90
2022-12-09T21:18:51.488Z,4.91
2022-12-09T21:21:19.495Z,4.91
2022-12-09T21:23:46.544Z,4.90
2022-12-09T21:26:15.298Z,4.89
2022-12-09T21:28:43.734Z,4.85
2022-12-09T21:31:11.730Z,4.84
2022-12-09T21:33:39.137Z,4.84
2022-12-09T21:36:11.569Z,4.85
2022-12-09T21:38:38.697Z,4.84
2022-12-09T21:41:13.647Z,4.83
2022-12-09T21:43:40.868Z,4.83
2022-12-09T21:46:14.106Z,4.82
2022-12-09T21:48:41.506Z,4.81
2022-12-09T21:51:09.705Z,4.80
2022-12-09T21:53:36.129Z,4.80
2022-12-09T21:56:03.144Z,4.78
2022-12-09T21:58:31.545Z,4.76
2022-12-09T22:00:58.295Z,4.76
2022-12-09T22:03:25.922Z,4.75
2022-12-09T22:05:58.041Z,4.75
2022-12-09T22:08:24.791Z,4.74
2022-12-09T22:10:51.254Z,4.74
2022-12-09T22:13:17.786Z,4.71
2022-12-09T22:15:44.453Z,4.71
2022-12-09T22:18:10.826Z,4.69
2022-12-09T22:23:23.643Z,4.67
2022-12-09T22:25:50.034Z,4.66
2022-12-09T22:28:16.506Z,4.66
2022-12-09T22:30:42.895Z,4.63
2022-12-09T22:33:09.360Z,4.62
2022-12-09T22:35:35.746Z,4.61
2022-12-09T22:38:05.250Z,4.62
2022-12-09T22:40:37.272Z,4.61
2022-12-09T22:43:03.609Z,4.59
2022-12-09T22:45:29.937Z,4.58
2022-12-09T22:47:56.317Z,4.58
2022-12-09T22:50:22.831Z,4.56
2022-12-09T22:52:49.244Z,4.56
2022-12-09T22:55:15.585Z,4.54
2022-12-09T22:57:42.063Z,4.53
2022-12-09T23:00:11.810Z,4.53
2022-12-09T23:02:39.372Z,4.51
2022-12-09T23:05:07.725Z,4.51
2022-12-09T23:07:35.186Z,4.51
2022-12-09T23:10:02.197Z,4.48
2022-12-09T23:12:28.636Z,4.47
2022-12-09T23:14:55.064Z,4.45
2022-12-09T23:17:21.473Z,4.44
2022-12-09T23:19:47.867Z,4.42
2022-12-09T23:22:14.254Z,4.42
2022-12-09T23:24:40.578Z,4.40
2022-12-09T23:27:06.909Z,4.37
2022-12-09T23:29:33.286Z,4.34
2022-12-09T23:31:59.658Z,4.32
2022-12-09T23:34:26.288Z,4.31
2022-12-09T23:36:52.748Z,4.33
2022-12-09T23:39:19.485Z,4.32
2022-12-09T23:41:46.015Z,4.30
2022-12-09T23:44:15.195Z,4.31
2022-12-09T23:46:42.478Z,4.30
2022-12-09T23:49:09.738Z,4.31
2022-12-09T23:51:40.427Z,4.27
2022-12-09T23:54:08.708Z,4.29
2022-12-09T23:56:39.046Z,4.30
2022-12-09T23:59:08.254Z,4.27
